Terminal Aerodrome Forecast
Issued by NWS Greer, SC

Home | Current Version | Previous Version | Text Only | Print | Product List | Glossary On
Versions: 1 2 3 4 5 6 7 8 9 10 11 12 13 14 15 16 17 18 19 20 21 22 23 24 25
000
FTUS42 KGSP 262339
TAFGSP
TAF
KGSP 262339Z 2700/2724 00000KT P6SM FEW040 SCT050
     FM270400 00000KT P6SM BKN035
      TEMPO 2709/2712 4SM BR
     FM271200 03004KT P6SM SCT040 BKN050=

USA.gov is the U.S. government's official web portal to all federal, state and local government web resources and services.